
Distance (Route):
Temperature : -23.7°C
Humidity : -1.0%
Pressure : -1.0hPa| Receiver | Date | Latitude | Longitude | Direction | Speed | Altitude | Climb | Temperature | Humidity | Pressure | Voltage | Killtimer | Uptime | BKT | XDATA |
|---|---|---|---|---|---|---|---|---|---|---|---|---|---|---|---|
| DB0ND-19 | 2026-09-01 15:49:06 | 47.24960 | 3.96419 | 96° | 69km/h | 7003m | -3.5m/s | -23.7°C | -1.0% | -1.0hPa | 0V | 00:00:00 | 00:00:00 | 00:00:00 | |
| DB0ND-19 | 2026-09-01 15:48:35 | 47.24978 | 3.95933 | 103° | 57km/h | 7078m | -3.5m/s | -23.9°C | -1.0% | -1.0hPa | 0V | 00:00:00 | 00:00:00 | 00:00:00 | |
| DB0UT-7 | 2026-09-01 15:48:08 | 47.25024 | 3.95319 | 105° | 68km/h | 7169m | -3.4m/s | 0°C | 0% | 0hPa | 0V | 00:00:00 | 00:00:00 | 00:00:00 | |
| DB0ND-19 | 2026-09-01 15:48:04 | 47.25046 | 3.95018 | 103° | 60km/h | 7206m | -3.8m/s | -24.1°C | -1.0% | -1.0hPa | 0V | 00:00:00 | 00:00:00 | 00:00:00 | |
| DB0UT-7 | 2026-09-01 15:47:38 | 47.25088 | 3.94556 | 91° | 66km/h | 7277m | -3.8m/s | 0°C | 0% | 0hPa | 0V | 00:00:00 | 00:00:00 | 00:00:00 | |
| DB0ND-19 | 2026-09-01 15:47:33 | 47.25099 | 3.94362 | 105° | 73km/h | 7304m | -3.9m/s | -24.5°C | -1.0% | -1.0hPa | 0V | 00:00:00 | 00:00:00 | 00:00:00 | |
| DB0ND-19 | 2026-09-01 15:47:01 | 47.25167 | 3.93601 | 90° | 73km/h | 7414m | -3.8m/s | -24.8°C | -1.0% | -1.0hPa | 0V | 00:00:00 | 00:00:00 | 00:00:00 | |
| DB0UT-7 | 2026-09-01 15:46:22 | 47.25220 | 3.92697 | 89° | 64km/h | 7549m | -3.4m/s | 0°C | 0% | 0hPa | 0V | 00:00:00 | 00:00:00 | 00:00:00 | |
| DB0UT-7 | 2026-09-01 15:45:52 | 47.25187 | 3.91996 | 77° | 62km/h | 7653m | -3.1m/s | 0°C | 0% | 0hPa | 0V | 00:00:00 | 00:00:00 | 00:00:00 | |
| DB0ND-19 | 2026-09-01 15:45:28 | 47.25140 | 3.91463 | 91° | 69km/h | 7728m | -3.3m/s | -26.4°C | -1.0% | -1.0hPa | 0V | 00:00:00 | 00:00:00 | 00:00:00 | |
| DB0UT-7 | 2026-09-01 15:44:44 | 47.25026 | 3.90449 | 85° | 60km/h | 7878m | -3.3m/s | 0°C | 0% | 0hPa | 0V | 00:00:00 | 00:00:00 | 00:00:00 | |
| DB0UT-7 | 2026-09-01 15:44:14 | 47.24942 | 3.89771 | 79° | 62km/h | 7976m | -3.2m/s | 0°C | 0% | 0hPa | 0V | 00:00:00 | 00:00:00 | 00:00:00 | |
| DB0ND-19 | 2026-09-01 15:43:55 | 47.24880 | 3.89334 | 80° | 46km/h | 8036m | -3.1m/s | -29.0°C | -1.0% | -1.0hPa | 0V | 00:00:00 | 00:00:00 | 00:00:00 | |
| DB0ND-19 | 2026-09-01 15:43:24 | 47.24839 | 3.88667 | 95° | 57km/h | 8136m | -3.2m/s | -29.9°C | -1.0% | -1.0hPa | 0V | 00:00:00 | 00:00:00 | 00:00:00 | |
| DB0UT-7 | 2026-09-01 15:43:06 | 47.24829 | 3.88291 | 80° | 60km/h | 8234m | -3.1m/s | 0°C | 0% | 0hPa | 0V | 00:00:00 | 00:00:00 | 00:00:00 | |
| DB0ND-19 | 2026-09-01 15:42:53 | 47.24811 | 3.87984 | 78° | 53km/h | 8242m | -3.4m/s | -30.7°C | -1.0% | -1.0hPa | 0V | 00:00:00 | 00:00:00 | 00:00:00 | |
| DB0UT-7 | 2026-09-01 15:42:30 | 47.24782 | 3.87506 | 79° | 60km/h | 8321m | -3.7m/s | 0°C | 0% | 0hPa | 0V | 00:00:00 | 00:00:00 | 00:00:00 | |
| DB0ND-19 | 2026-09-01 15:42:22 | 47.24780 | 3.87303 | 93° | 64km/h | 8354m | -3.8m/s | -31.7°C | -1.0% | -1.0hPa | 0V | 00:00:00 | 00:00:00 | 00:00:00 | |
| DB0ND-19 | 2026-09-01 15:41:51 | 47.24735 | 3.86629 | 72° | 51km/h | 8449m | -3.0m/s | -32.5°C | -1.0% | -1.0hPa | 0V | 00:00:00 | 00:00:00 | 00:00:00 | |
| DB0UT-7 | 2026-09-01 15:41:17 | 47.24712 | 3.85925 | 86° | 60km/h | 8562m | -3.3m/s | 0°C | 0% | 0hPa | 0V | 00:00:00 | 00:00:00 | 00:00:00 | |
| DB0UT-7 | 2026-09-01 15:40:46 | 47.24629 | 3.85253 | 90° | 60km/h | 8663m | -3.2m/s | 0°C | 0% | 0hPa | 0V | 00:00:00 | 00:00:00 | 00:00:00 | |
| DB0ND-19 | 2026-09-01 15:40:18 | 47.24545 | 3.84586 | 86° | 69km/h | 8755m | -3.9m/s | -34.6°C | -1.0% | -1.0hPa | 0V | 00:00:00 | 00:00:00 | 00:00:00 | |
| DB0UT-7 | 2026-09-01 15:39:45 | 47.24449 | 3.83844 | 75° | 66km/h | 8873m | -3.2m/s | 0°C | 0% | 0hPa | 0V | 00:00:00 | 00:00:00 | 00:00:00 | |
| DB0UT-7 | 2026-09-01 15:39:14 | 47.24326 | 3.83097 | 68° | 82km/h | 8995m | -3.6m/s | 0°C | 0% | 0hPa | 0V | 00:00:00 | 00:00:00 | 00:00:00 | |
| DB0ND-19 | 2026-09-01 15:38:45 | 47.24203 | 3.82324 | 73° | 77km/h | 9096m | -4.4m/s | -36.8°C | -1.0% | -1.0hPa | 0V | 00:00:00 | 00:00:00 | 00:00:00 | |
| DB0UT-7 | 2026-09-01 15:38:07 | 47.24042 | 3.81259 | 86° | 80km/h | 9242m | -3.1m/s | 0°C | 0% | 0hPa | 0V | 00:00:00 | 00:00:00 | 00:00:00 | |
| DB0UT-7 | 2026-09-01 15:37:37 | 47.23905 | 3.80380 | 81° | 84km/h | 9359m | -2.7m/s | 0°C | 0% | 0hPa | 0V | 00:00:00 | 00:00:00 | 00:00:00 | |
| DB0UT-7 | 2026-09-01 15:37:07 | 47.23740 | 3.79431 | 84° | 95km/h | 9488m | -4.2m/s | 0°C | 0% | 0hPa | 0V | 00:00:00 | 00:00:00 | 00:00:00 | |
| DB0UT-7 | 2026-09-01 15:36:35 | 47.23578 | 3.78373 | 85° | 93km/h | 9636m | -4.4m/s | 0°C | 0% | 0hPa | 0V | 00:00:00 | 00:00:00 | 00:00:00 | |
| DB0UT-7 | 2026-09-01 15:36:05 | 47.23414 | 3.77375 | 75° | 89km/h | 9772m | -4.5m/s | 0°C | 0% | 0hPa | 0V | 00:00:00 | 00:00:00 | 00:00:00 | |
| DB0UT-7 | 2026-09-01 15:35:35 | 47.23260 | 3.76377 | 66° | 95km/h | 9914m | -4.3m/s | 0°C | 0% | 0hPa | 0V | 00:00:00 | 00:00:00 | 00:00:00 | |
| DB0UT-7 | 2026-09-01 15:35:05 | 47.23100 | 3.75372 | 67° | 91km/h | 10047m | -4.7m/s | 0°C | 0% | 0hPa | 0V | 00:00:00 | 00:00:00 | 00:00:00 | |
| DB0UT-7 | 2026-09-01 15:34:35 | 47.22936 | 3.74400 | 82° | 95km/h | 10185m | -4.3m/s | 0°C | 0% | 0hPa | 0V | 00:00:00 | 00:00:00 | 00:00:00 | |
| DB0UT-7 | 2026-09-01 15:34:05 | 47.22772 | 3.73381 | 90° | 100km/h | 10320m | -4.4m/s | 0°C | 0% | 0hPa | 0V | 00:00:00 | 00:00:00 | 00:00:00 | |
| DB0ND-19 | 2026-09-01 15:33:35 | 47.22605 | 3.72255 | 76° | 80km/h | 10461m | -4.3m/s | -47.8°C | -1.0% | -1.0hPa | 0V | 00:00:00 | 00:00:00 | 00:00:00 | |
| DB0UT-7 | 2026-09-01 15:33:02 | 47.22420 | 3.71027 | 67° | 106km/h | 10612m | -4.5m/s | 0°C | 0% | 0hPa | 0V | 00:00:00 | 00:00:00 | 00:00:00 | |
| DB0UT-7 | 2026-09-01 15:32:32 | 47.22245 | 3.69872 | 71° | 113km/h | 10747m | -4.4m/s | 0°C | 0% | 0hPa | 0V | 00:00:00 | 00:00:00 | 00:00:00 | |
| DB0ND-19 | 2026-09-01 15:32:02 | 47.22018 | 3.68712 | 84° | 111km/h | 10882m | -4.3m/s | -51.3°C | -1.0% | -1.0hPa | 0V | 00:00:00 | 00:00:00 | 00:00:00 | |
| DB0UT-7 | 2026-09-01 15:31:26 | 47.21762 | 3.67336 | 85° | 115km/h | 11044m | -4.3m/s | 0°C | 0% | 0hPa | 0V | 00:00:00 | 00:00:00 | 00:00:00 | |
| DB0UT-7 | 2026-09-01 15:30:53 | 47.21505 | 3.65970 | 84° | 124km/h | 11196m | -4.3m/s | 0°C | 0% | 0hPa | 0V | 00:00:00 | 00:00:00 | 00:00:00 | |
| DB0UT-7 | 2026-09-01 15:30:23 | 47.21245 | 3.64677 | 68° | 120km/h | 11339m | -4.7m/s | 0°C | 0% | 0hPa | 0V | 00:00:00 | 00:00:00 | 00:00:00 | |
| DB0UT-7 | 2026-09-01 15:29:51 | 47.20981 | 3.63331 | 67° | 119km/h | 11483m | -4.7m/s | 0°C | 0% | 0hPa | 0V | 00:00:00 | 00:00:00 | 00:00:00 | |
| DB0UT-7 | 2026-09-01 15:29:21 | 47.20737 | 3.62066 | 83° | 128km/h | 11634m | -4.5m/s | 0°C | 0% | 0hPa | 0V | 00:00:00 | 00:00:00 | 00:00:00 | |
| DB0UT-7 | 2026-09-01 15:28:51 | 47.20451 | 3.60731 | 74° | 124km/h | 11784m | -5.1m/s | 0°C | 0% | 0hPa | 0V | 00:00:00 | 00:00:00 | 00:00:00 | |
| DB0UT-7 | 2026-09-01 15:28:21 | 47.20206 | 3.59432 | 65° | 108km/h | 11934m | -4.8m/s | 0°C | 0% | 0hPa | 0V | 00:00:00 | 00:00:00 | 00:00:00 | |
| DB0UT-7 | 2026-09-01 15:27:51 | 47.19973 | 3.58314 | 84° | 108km/h | 12087m | -4.7m/s | 0°C | 0% | 0hPa | 0V | 00:00:00 | 00:00:00 | 00:00:00 | |
| DB0UT-7 | 2026-09-01 15:27:21 | 47.19690 | 3.57190 | 64° | 110km/h | 12242m | -5.0m/s | 0°C | 0% | 0hPa | 0V | 00:00:00 | 00:00:00 | 00:00:00 | |
| DB0UT-7 | 2026-09-01 15:26:51 | 47.19434 | 3.56069 | 64° | 106km/h | 12397m | -5.2m/s | 0°C | 0% | 0hPa | 0V | 00:00:00 | 00:00:00 | 00:00:00 | |
| DB0UT-7 | 2026-09-01 15:26:21 | 47.19213 | 3.54954 | 89° | 111km/h | 12551m | -5.4m/s | 0°C | 0% | 0hPa | 0V | 00:00:00 | 00:00:00 | 00:00:00 | |
| DB0ND-19 | 2026-09-01 15:26:20 | 47.19209 | 3.54864 | 84° | 126km/h | 12556m | -5.3m/s | -58.0°C | -1.0% | -1.0hPa | 0V | 00:00:00 | 00:00:00 | 00:00:00 | |
| DB0UT-7 | 2026-09-01 15:25:50 | 47.19053 | 3.53731 | 79° | 97km/h | 12713m | -5.5m/s | 0°C | 0% | 0hPa | 0V | 00:00:00 | 00:00:00 | 00:00:00 | |
| DB0ND-19 | 2026-09-01 15:25:49 | 47.19048 | 3.53637 | 91° | 89km/h | 12725m | -5.9m/s | -56.9°C | -1.0% | -1.0hPa | 0V | 00:00:00 | 00:00:00 | 00:00:00 | |
| DB0UT-7 | 2026-09-01 15:25:20 | 47.18909 | 3.52661 | 65° | 97km/h | 12874m | -4.6m/s | 0°C | 0% | 0hPa | 0V | 00:00:00 | 00:00:00 | 00:00:00 | |
| DB0ND-19 | 2026-09-01 15:25:18 | 47.18875 | 3.52565 | 61° | 84km/h | 12883m | -4.5m/s | -55.3°C | -1.0% | -1.0hPa | 0V | 00:00:00 | 00:00:00 | 00:00:00 | |
| DB0UT-7 | 2026-09-01 15:24:50 | 47.18777 | 3.51656 | 94° | 95km/h | 13034m | -4.7m/s | 0°C | 0% | 0hPa | 0V | 00:00:00 | 00:00:00 | 00:00:00 | |
| DB0ND-19 | 2026-09-01 15:24:47 | 47.18769 | 3.51487 | 76° | 113km/h | 13048m | -4.6m/s | -54.8°C | -1.0% | -1.0hPa | 0V | 00:00:00 | 00:00:00 | 00:00:00 | |
| DB0UT-7 | 2026-09-01 15:24:20 | 47.18629 | 3.50648 | 72° | 88km/h | 13194m | -5.4m/s | 0°C | 0% | 0hPa | 0V | 00:00:00 | 00:00:00 | 00:00:00 | |
| DB0ND-19 | 2026-09-01 15:24:16 | 47.18622 | 3.50518 | 95° | 82km/h | 13216m | -5.6m/s | -54.4°C | -1.0% | -1.0hPa | 0V | 00:00:00 | 00:00:00 | 00:00:00 | |
| DB0UT-7 | 2026-09-01 15:23:50 | 47.18561 | 3.49701 | 79° | 80km/h | 13361m | -5.3m/s | 0°C | 0% | 0hPa | 0V | 00:00:00 | 00:00:00 | 00:00:00 | |
| DB0ND-19 | 2026-09-01 15:23:45 | 47.18514 | 3.49508 | 68° | 69km/h | 13388m | -4.8m/s | -53.6°C | -1.0% | -1.0hPa | 0V | 00:00:00 | 00:00:00 | 00:00:00 | |
| DB0UT-7 | 2026-09-01 15:23:20 | 47.18473 | 3.48793 | 104° | 88km/h | 13525m | -6.1m/s | 0°C | 0% | 0hPa | 0V | 00:00:00 | 00:00:00 | 00:00:00 | |
| DB0ND-19 | 2026-09-01 15:23:14 | 47.18503 | 3.48513 | 85° | 106km/h | 13564m | -5.5m/s | -54.1°C | -1.0% | -1.0hPa | 0V | 00:00:00 | 00:00:00 | 00:00:00 | |
| DB0UT-7 | 2026-09-01 15:22:50 | 47.18501 | 3.47834 | 77° | 80km/h | 13690m | -5.7m/s | 0°C | 0% | 0hPa | 0V | 00:00:00 | 00:00:00 | 00:00:00 | |
| DB0ND-19 | 2026-09-01 15:22:43 | 47.18464 | 3.47634 | 95° | 55km/h | 13729m | -5.4m/s | -54.3°C | -1.0% | -1.0hPa | 0V | 00:00:00 | 00:00:00 | 00:00:00 | |
| DB0UT-7 | 2026-09-01 15:22:20 | 47.18432 | 3.46965 | 98° | 82km/h | 13853m | -5.0m/s | 0°C | 0% | 0hPa | 0V | 00:00:00 | 00:00:00 | 00:00:00 | |
| DB0ND-19 | 2026-09-01 15:22:12 | 47.18404 | 3.46670 | 87° | 57km/h | 13893m | -4.7m/s | -53.9°C | -1.0% | -1.0hPa | 0V | 00:00:00 | 00:00:00 | 00:00:00 | |
| DB0UT-7 | 2026-09-01 15:21:50 | 47.18434 | 3.46080 | 94° | 71km/h | 14005m | -4.3m/s | 0°C | 0% | 0hPa | 0V | 00:00:00 | 00:00:00 | 00:00:00 | |
| DB0ND-19 | 2026-09-01 15:21:41 | 47.18411 | 3.45844 | 112° | 57km/h | 14051m | -4.5m/s | -53.8°C | -1.0% | -1.0hPa | 0V | 00:00:00 | 00:00:00 | 00:00:00 | |
| DB0UT-7 | 2026-09-01 15:21:20 | 47.18410 | 3.45346 | 75° | 68km/h | 14156m | -5.3m/s | 0°C | 0% | 0hPa | 0V | 00:00:00 | 00:00:00 | 00:00:00 | |
| DB0ND-19 | 2026-09-01 15:21:10 | 47.18370 | 3.45091 | 84° | 68km/h | 14209m | -5.2m/s | -53.5°C | -1.0% | -1.0hPa | 0V | 00:00:00 | 00:00:00 | 00:00:00 | |
| DB0UT-7 | 2026-09-01 15:20:50 | 47.18292 | 3.44616 | 76° | 80km/h | 14314m | -6.8m/s | 0°C | 0% | 0hPa | 0V | 00:00:00 | 00:00:00 | 00:00:00 | |
| DB0ND-19 | 2026-09-01 15:20:39 | 47.18235 | 3.44277 | 75° | 73km/h | 14370m | -5.3m/s | -53.8°C | -1.0% | -1.0hPa | 0V | 00:00:00 | 00:00:00 | 00:00:00 | |
| DB0UT-7 | 2026-09-01 15:20:20 | 47.18188 | 3.43742 | 86° | 80km/h | 14468m | -4.7m/s | 0°C | 0% | 0hPa | 0V | 00:00:00 | 00:00:00 | 00:00:00 | |
| DB0ND-19 | 2026-09-01 15:20:08 | 47.18171 | 3.43341 | 90° | 82km/h | 14530m | -6.1m/s | -53.4°C | -1.0% | -1.0hPa | 0V | 00:00:00 | 00:00:00 | 00:00:00 | |
| DB0UT-7 | 2026-09-01 15:19:50 | 47.18171 | 3.42857 | 92° | 62km/h | 14614m | -4.9m/s | 0°C | 0% | 0hPa | 0V | 00:00:00 | 00:00:00 | 00:00:00 | |
| DB0UT-7 | 2026-09-01 15:19:20 | 47.18149 | 3.42176 | 82° | 58km/h | 14769m | -5.3m/s | 0°C | 0% | 0hPa | 0V | 00:00:00 | 00:00:00 | 00:00:00 | |
| DB0ND-19 | 2026-09-01 15:19:06 | 47.18104 | 3.41858 | 85° | 51km/h | 14848m | -5.4m/s | -52.9°C | -1.0% | -1.0hPa | 0V | 00:00:00 | 00:00:00 | 00:00:00 | |
| DB0UT-7 | 2026-09-01 15:18:50 | 47.18069 | 3.41540 | 84° | 68km/h | 14937m | -6.3m/s | 0°C | 0% | 0hPa | 0V | 00:00:00 | 00:00:00 | 00:00:00 | |
| DB0UT-7 | 2026-09-01 15:18:20 | 47.18018 | 3.40784 | 92° | 68km/h | 15121m | -4.5m/s | 0°C | 0% | 0hPa | 0V | 00:00:00 | 00:00:00 | 00:00:00 | |
| DB0ND-19 | 2026-09-01 15:18:04 | 47.17981 | 3.40363 | 85° | 71km/h | 15201m | -4.2m/s | -53.4°C | -1.0% | -1.0hPa | 0V | 00:00:00 | 00:00:00 | 00:00:00 | |
| DB0UT-7 | 2026-09-01 15:17:50 | 47.17940 | 3.40046 | 82° | 77km/h | 15274m | -5.7m/s | 0°C | 0% | 0hPa | 0V | 00:00:00 | 00:00:00 | 00:00:00 | |
| DB0UT-7 | 2026-09-01 15:17:20 | 47.17811 | 3.39224 | 75° | 77km/h | 15441m | -4.7m/s | 0°C | 0% | 0hPa | 0V | 00:00:00 | 00:00:00 | 00:00:00 | |
| DB0ND-19 | 2026-09-01 15:17:02 | 47.17783 | 3.38732 | 106° | 82km/h | 15548m | -5.2m/s | -54.9°C | -1.0% | -1.0hPa | 0V | 00:00:00 | 00:00:00 | 00:00:00 | |
| DB0UT-7 | 2026-09-01 15:16:50 | 47.17765 | 3.38401 | 104° | 77km/h | 15609m | -4.9m/s | 0°C | 0% | 0hPa | 0V | 00:00:00 | 00:00:00 | 00:00:00 | |
| DB0UT-7 | 2026-09-01 15:16:20 | 47.17828 | 3.37596 | 128° | 60km/h | 15787m | -6.3m/s | 0°C | 0% | 0hPa | 0V | 00:00:00 | 00:00:00 | 00:00:00 | |
| DB0UT-7 | 2026-09-01 15:15:50 | 47.17893 | 3.36947 | 95° | 55km/h | 15952m | -4.4m/s | 0°C | 0% | 0hPa | 0V | 00:00:00 | 00:00:00 | 00:00:00 | |
| DB0UT-7 | 2026-09-01 15:15:20 | 47.17865 | 3.36331 | 77° | 62km/h | 16120m | -5.5m/s | 0°C | 0% | 0hPa | 0V | 00:00:00 | 00:00:00 | 00:00:00 | |
| DB0UT-7 | 2026-09-01 15:14:50 | 47.17825 | 3.35660 | 98° | 53km/h | 16293m | -5.5m/s | 0°C | 0% | 0hPa | 0V | 00:00:00 | 00:00:00 | 00:00:00 | |
| DB0UT-7 | 2026-09-01 15:14:20 | 47.17834 | 3.35086 | 92° | 57km/h | 16488m | -7.2m/s | 0°C | 0% | 0hPa | 0V | 00:00:00 | 00:00:00 | 00:00:00 | |
| DB0UT-7 | 2026-09-01 15:13:50 | 47.17838 | 3.34484 | 59° | 60km/h | 16679m | -6.0m/s | 0°C | 0% | 0hPa | 0V | 00:00:00 | 00:00:00 | 00:00:00 | |
| DB0UT-7 | 2026-09-01 15:13:20 | 47.17780 | 3.33913 | 46° | 49km/h | 16870m | -6.6m/s | 0°C | 0% | 0hPa | 0V | 00:00:00 | 00:00:00 | 00:00:00 | |
| DB0ND-19 | 2026-09-01 15:12:53 | 47.17745 | 3.33456 | 60° | 47km/h | 17045m | -6.6m/s | -55.6°C | -1.0% | -1.0hPa | 0V | 00:00:00 | 00:00:00 | 00:00:00 | |
| DB0UT-7 | 2026-09-01 15:12:52 | 47.17698 | 3.32860 | 96° | 49km/h | 17261m | -5.5m/s | 0°C | 0% | 0hPa | 0V | 00:00:00 | 00:00:00 | 00:00:00 | |
| DB0ND-19 | 2026-09-01 15:12:22 | 47.17695 | 3.32871 | 114° | 35km/h | 17248m | -6.3m/s | -55.7°C | -1.0% | -1.0hPa | 0V | 00:00:00 | 00:00:00 | 00:00:00 | |
| DB0ND-19 | 2026-09-01 15:11:51 | 47.17676 | 3.32331 | 97° | 31km/h | 17460m | -7.2m/s | -55.0°C | -1.0% | -1.0hPa | 0V | 00:00:00 | 00:00:00 | 00:00:00 | |
| DB0UT-7 | 2026-09-01 15:11:20 | 47.17669 | 3.31995 | 82° | 31km/h | 17660m | -5.7m/s | 0°C | 0% | 0hPa | 0V | 00:00:00 | 00:00:00 | 00:00:00 | |
| DB0UT-7 | 2026-09-01 15:10:50 | 47.17581 | 3.31707 | 95° | 42km/h | 17864m | -7.7m/s | 0°C | 0% | 0hPa | 0V | 00:00:00 | 00:00:00 | 00:00:00 | |
| DB0ND-19 | 2026-09-01 15:10:49 | 47.17579 | 3.31692 | 56° | 20km/h | 17872m | -7.3m/s | -55.0°C | -1.0% | -1.0hPa | 0V | 00:00:00 | 00:00:00 | 00:00:00 | |
| DB0UT-7 | 2026-09-01 15:10:20 | 47.17464 | 3.31294 | 93° | 26km/h | 18083m | -7.3m/s | 0°C | 0% | 0hPa | 0V | 00:00:00 | 00:00:00 | 00:00:00 | |
| DB0ND-19 | 2026-09-01 15:10:18 | 47.17461 | 3.31256 | 72° | 35km/h | 18099m | -7.3m/s | -53.9°C | -1.0% | -1.0hPa | 0V | 00:00:00 | 00:00:00 | 00:00:00 | |
| DB0UT-7 | 2026-09-01 15:09:50 | 47.17450 | 3.31043 | 28° | 26km/h | 18303m | -8.4m/s | 0°C | 0% | 0hPa | 0V | 00:00:00 | 00:00:00 | 00:00:00 | |
| DB0ND-19 | 2026-09-01 15:09:47 | 47.17430 | 3.31023 | 57° | 20km/h | 18326m | -6.7m/s | -53.9°C | -1.0% | -1.0hPa | 0V | 00:00:00 | 00:00:00 | 00:00:00 | |
| DB0UT-7 | 2026-09-01 15:09:20 | 47.17362 | 3.30821 | 60° | 35km/h | 18508m | -5.7m/s | 0°C | 0% | 0hPa | 0V | 00:00:00 | 00:00:00 | 00:00:00 | |
| DB0ND-19 | 2026-09-01 15:09:16 | 47.17354 | 3.30774 | 53° | 13km/h | 18551m | -8.2m/s | -55.4°C | -1.0% | -1.0hPa | 0V | 00:00:00 | 00:00:00 | 00:00:00 | |
| DB0UT-7 | 2026-09-01 15:08:50 | 47.17288 | 3.30487 | 82° | 42km/h | 18737m | -6.5m/s | 0°C | 0% | 0hPa | 0V | 00:00:00 | 00:00:00 | 00:00:00 | |
| DB0ND-19 | 2026-09-01 15:08:45 | 47.17283 | 3.30394 | 84° | 40km/h | 18769m | 1.1m/s | -54.8°C | -1.0% | -1.0hPa | 0V | 00:00:00 | 00:00:00 | 00:00:00 | |
| DB0UT-7 | 2026-09-01 15:08:20 | 47.17231 | 3.30036 | 84° | 33km/h | 18654m | 5.6m/s | 0°C | 0% | 0hPa | 0V | 00:00:00 | 00:00:00 | 00:00:00 | |
| DB0ND-19 | 2026-09-01 15:08:14 | 47.17220 | 3.29949 | 69° | 38km/h | 18626m | 4.8m/s | -56.0°C | -1.0% | -1.0hPa | 0V | 00:00:00 | 00:00:00 | 00:00:00 | |
| DB0UT-7 | 2026-09-01 15:07:50 | 47.17136 | 3.29712 | 57° | 24km/h | 18514m | 3.9m/s | 0°C | 0% | 0hPa | 0V | 00:00:00 | 00:00:00 | 00:00:00 | |
| DB0ND-19 | 2026-09-01 15:07:43 | 47.17108 | 3.29641 | 63° | 24km/h | 18480m | 5.1m/s | -54.9°C | -1.0% | -1.0hPa | 0V | 00:00:00 | 00:00:00 | 00:00:00 | |
| DB0UT-7 | 2026-09-01 15:07:20 | 47.17049 | 3.29474 | 50° | 16km/h | 18373m | 4.9m/s | 0°C | 0% | 0hPa | 0V | 00:00:00 | 00:00:00 | 00:00:00 | |
| DB0ND-19 | 2026-09-01 15:07:12 | 47.17028 | 3.29425 | 81° | 13km/h | 18335m | 4.3m/s | -54.5°C | -1.0% | -1.0hPa | 0V | 00:00:00 | 00:00:00 | 00:00:00 | |
| DB0UT-7 | 2026-09-01 15:06:50 | 47.17014 | 3.29302 | 79° | 26km/h | 18237m | 4.4m/s | 0°C | 0% | 0hPa | 0V | 00:00:00 | 00:00:00 | 00:00:00 | |
| DB0ND-19 | 2026-09-01 15:06:41 | 47.17005 | 3.29204 | 68° | 18km/h | 18191m | 5.6m/s | -54.6°C | -1.0% | -1.0hPa | 0V | 00:00:00 | 00:00:00 | 00:00:00 | |
| DB0UT-7 | 2026-09-01 15:06:20 | 47.16968 | 3.29023 | 86° | 40km/h | 18101m | 4.6m/s | 0°C | 0% | 0hPa | 0V | 00:00:00 | 00:00:00 | 00:00:00 | |
| DB0ND-19 | 2026-09-01 15:06:10 | 47.16938 | 3.28891 | 73° | 44km/h | 18055m | 4.5m/s | -55.1°C | -1.0% | -1.0hPa | 0V | 00:00:00 | 00:00:00 | 00:00:00 | |
| DB0UT-7 | 2026-09-01 15:05:50 | 47.16857 | 3.28602 | 65° | 38km/h | 17963m | 5.0m/s | 0°C | 0% | 0hPa | 0V | 00:00:00 | 00:00:00 | 00:00:00 | |
| DB0ND-19 | 2026-09-01 15:05:39 | 47.16796 | 3.28430 | 56° | 37km/h | 17913m | 4.7m/s | -55.5°C | -1.0% | -1.0hPa | 0V | 00:00:00 | 00:00:00 | 00:00:00 | |
| DB0UT-7 | 2026-09-01 15:05:20 | 47.16717 | 3.28227 | 56° | 26km/h | 17822m | 4.1m/s | 0°C | 0% | 0hPa | 0V | 00:00:00 | 00:00:00 | 00:00:00 | |
| DB0ND-19 | 2026-09-01 15:05:08 | 47.16673 | 3.28109 | 52° | 20km/h | 17766m | 4.9m/s | -54.7°C | -1.0% | -1.0hPa | 0V | 00:00:00 | 00:00:00 | 00:00:00 | |
| DB0UT-7 | 2026-09-01 15:04:50 | 47.16621 | 3.27984 | 74° | 26km/h | 17681m | 4.8m/s | 0°C | 0% | 0hPa | 0V | 00:00:00 | 00:00:00 | 00:00:00 | |
| DB0UT-7 | 2026-09-01 15:04:20 | 47.16616 | 3.27692 | 95° | 40km/h | 17533m | 5.8m/s | 0°C | 0% | 0hPa | 0V | 00:00:00 | 00:00:00 | 00:00:00 | |
| DB0ND-19 | 2026-09-01 15:04:06 | 47.16619 | 3.27478 | 92° | 46km/h | 17466m | 4.2m/s | -55.5°C | -1.0% | -1.0hPa | 0V | 00:00:00 | 00:00:00 | 00:00:00 | |
| DB0UT-7 | 2026-09-01 15:03:50 | 47.16625 | 3.27250 | 96° | 49km/h | 17396m | 5.0m/s | 0°C | 0% | 0hPa | 0V | 00:00:00 | 00:00:00 | 00:00:00 | |
| DB0UT-7 | 2026-09-01 15:03:20 | 47.16597 | 3.26708 | 82° | 49km/h | 17258m | 5.0m/s | 0°C | 0% | 0hPa | 0V | 00:00:00 | 00:00:00 | 00:00:00 | |
| DB0ND-19 | 2026-09-01 15:03:04 | 47.16582 | 3.26410 | 87° | 47km/h | 17186m | 5.9m/s | -55.8°C | -1.0% | -1.0hPa | 0V | 00:00:00 | 00:00:00 | 00:00:00 | |
| DB0UT-7 | 2026-09-01 15:02:50 | 47.16569 | 3.26166 | 81° | 51km/h | 17113m | 4.4m/s | 0°C | 0% | 0hPa | 0V | 00:00:00 | 00:00:00 | 00:00:00 | |
| DB0UT-7 | 2026-09-01 15:02:18 | 47.16498 | 3.25572 | 86° | 47km/h | 16981m | 4.3m/s | 0°C | 0% | 0hPa | 0V | 00:00:00 | 00:00:00 | 00:00:00 | |
| DB0ND-19 | 2026-09-01 15:02:02 | 47.16495 | 3.25274 | 86° | 46km/h | 16909m | 4.5m/s | -55.9°C | -1.0% | -1.0hPa | 0V | 00:00:00 | 00:00:00 | 00:00:00 | |
| DB0UT-7 | 2026-09-01 15:01:48 | 47.16498 | 3.25040 | 91° | 53km/h | 16847m | 4.4m/s | 0°C | 0% | 0hPa | 0V | 00:00:00 | 00:00:00 | 00:00:00 | |
| DB0UT-7 | 2026-09-01 15:01:18 | 47.16477 | 3.24452 | 82° | 53km/h | 16711m | 5.9m/s | 0°C | 0% | 0hPa | 0V | 00:00:00 | 00:00:00 | 00:00:00 | |
| DB0UT-7 | 2026-09-01 15:00:48 | 47.16472 | 3.23863 | 97° | 57km/h | 16571m | 5.0m/s | 0°C | 0% | 0hPa | 0V | 00:00:00 | 00:00:00 | 00:00:00 | |
| DB0UT-7 | 2026-09-01 15:00:18 | 47.16505 | 3.23239 | 91° | 55km/h | 16428m | 5.5m/s | 0°C | 0% | 0hPa | 0V | 00:00:00 | 00:00:00 | 00:00:00 | |
| DB0UT-7 | 2026-09-01 14:59:48 | 47.16492 | 3.22637 | 94° | 55km/h | 16282m | 4.7m/s | 0°C | 0% | 0hPa | 0V | 00:00:00 | 00:00:00 | 00:00:00 | |
| DB0UT-7 | 2026-09-01 14:59:18 | 47.16518 | 3.22036 | 92° | 62km/h | 16136m | 3.5m/s | 0°C | 0% | 0hPa | 0V | 00:00:00 | 00:00:00 | 00:00:00 | |
| DB0UT-7 | 2026-09-01 14:58:48 | 47.16475 | 3.21351 | 89° | 57km/h | 15989m | 4.1m/s | 0°C | 0% | 0hPa | 0V | 00:00:00 | 00:00:00 | 00:00:00 | |
| DB0UT-7 | 2026-09-01 14:58:18 | 47.16447 | 3.20732 | 82° | 57km/h | 15843m | 5.0m/s | 0°C | 0% | 0hPa | 0V | 00:00:00 | 00:00:00 | 00:00:00 | |
| DB0UT-7 | 2026-09-01 14:57:48 | 47.16494 | 3.20108 | 100° | 73km/h | 15703m | 4.5m/s | 0°C | 0% | 0hPa | 0V | 00:00:00 | 00:00:00 | 00:00:00 | |
| DB0UT-7 | 2026-09-01 14:57:18 | 47.16542 | 3.19301 | 93° | 75km/h | 15567m | 5.0m/s | 0°C | 0% | 0hPa | 0V | 00:00:00 | 00:00:00 | 00:00:00 | |
| DB0ND-19 | 2026-09-01 14:56:51 | 47.16518 | 3.18524 | 81° | 69km/h | 15444m | 4.9m/s | -54.7°C | -1.0% | -1.0hPa | 0V | 00:00:00 | 00:00:00 | 00:00:00 | |
| DB0UT-7 | 2026-09-01 14:56:18 | 47.16392 | 3.17662 | 74° | 68km/h | 15297m | 5.8m/s | 0°C | 0% | 0hPa | 0V | 00:00:00 | 00:00:00 | 00:00:00 | |
| DB0UT-7 | 2026-09-01 14:55:48 | 47.16250 | 3.16945 | 75° | 68km/h | 15156m | 5.9m/s | 0°C | 0% | 0hPa | 0V | 00:00:00 | 00:00:00 | 00:00:00 | |
| DB0UT-7 | 2026-09-01 14:55:18 | 47.16171 | 3.16206 | 83° | 60km/h | 15016m | 5.3m/s | 0°C | 0% | 0hPa | 0V | 00:00:00 | 00:00:00 | 00:00:00 | |
| DB0UT-7 | 2026-09-01 14:54:48 | 47.16087 | 3.15540 | 72° | 53km/h | 14875m | 5.7m/s | 0°C | 0% | 0hPa | 0V | 00:00:00 | 00:00:00 | 00:00:00 | |
| DB0ND-19 | 2026-09-01 14:54:47 | 47.16080 | 3.15502 | 78° | 51km/h | 14870m | 4.0m/s | -53.7°C | -1.0% | -1.0hPa | 0V | 00:00:00 | 00:00:00 | 00:00:00 | |
| DB0UT-7 | 2026-09-01 14:54:18 | 47.16034 | 3.14954 | 90° | 69km/h | 14730m | 4.5m/s | 0°C | 0% | 0hPa | 0V | 00:00:00 | 00:00:00 | 00:00:00 | |
| DB0ND-19 | 2026-09-01 14:54:16 | 47.16031 | 3.14886 | 84° | 62km/h | 14720m | 3.9m/s | -54.5°C | -1.0% | -1.0hPa | 0V | 00:00:00 | 00:00:00 | 00:00:00 | |
| DB0UT-7 | 2026-09-01 14:53:48 | 47.16035 | 3.14170 | 88° | 82km/h | 14592m | 4.1m/s | 0°C | 0% | 0hPa | 0V | 00:00:00 | 00:00:00 | 00:00:00 | |
| DB0ND-19 | 2026-09-01 14:53:45 | 47.16030 | 3.14048 | 86° | 82km/h | 14578m | 5.4m/s | -54.8°C | -1.0% | -1.0hPa | 0V | 00:00:00 | 00:00:00 | 00:00:00 | |
| DB0UT-7 | 2026-09-01 14:53:18 | 47.15971 | 3.13253 | 80° | 77km/h | 14454m | 4.7m/s | 0°C | 0% | 0hPa | 0V | 00:00:00 | 00:00:00 | 00:00:00 | |
| DB0ND-19 | 2026-09-01 14:53:14 | 47.15950 | 3.13106 | 77° | 78km/h | 14435m | 3.7m/s | -54.9°C | -1.0% | -1.0hPa | 0V | 00:00:00 | 00:00:00 | 00:00:00 | |
| DB0ND-19 | 2026-09-01 14:52:43 | 47.15832 | 3.12243 | 76° | 68km/h | 14293m | 5.1m/s | -54.8°C | -1.0% | -1.0hPa | 0V | 00:00:00 | 00:00:00 | 00:00:00 | |
| DB0UT-7 | 2026-09-01 14:52:18 | 47.15780 | 3.11661 | 84° | 68km/h | 14181m | 4.4m/s | 0°C | 0% | 0hPa | 0V | 00:00:00 | 00:00:00 | 00:00:00 | |
| DB0ND-19 | 2026-09-01 14:52:12 | 47.15778 | 3.11494 | 95° | 64km/h | 14155m | 4.3m/s | -54.1°C | -1.0% | -1.0hPa | 0V | 00:00:00 | 00:00:00 | 00:00:00 | |
| DB0UT-7 | 2026-09-01 14:51:48 | 47.15790 | 3.10908 | 94° | 78km/h | 14046m | 5.2m/s | 0°C | 0% | 0hPa | 0V | 00:00:00 | 00:00:00 | 00:00:00 | |
| DB0UT-7 | 2026-09-01 14:51:18 | 47.15821 | 3.10040 | 91° | 84km/h | 13916m | 3.9m/s | 0°C | 0% | 0hPa | 0V | 00:00:00 | 00:00:00 | 00:00:00 | |
| DB0ND-19 | 2026-09-01 14:51:10 | 47.15818 | 3.09754 | 88° | 84km/h | 13879m | 4.8m/s | -54.2°C | -1.0% | -1.0hPa | 0V | 00:00:00 | 00:00:00 | 00:00:00 | |
| DB0UT-7 | 2026-09-01 14:50:48 | 47.15752 | 3.09108 | 78° | 77km/h | 13782m | 4.5m/s | 0°C | 0% | 0hPa | 0V | 00:00:00 | 00:00:00 | 00:00:00 | |
| DB0ND-19 | 2026-09-01 14:50:39 | 47.15710 | 3.08829 | 81° | 75km/h | 13741m | 4.9m/s | -54.4°C | -1.0% | -1.0hPa | 0V | 00:00:00 | 00:00:00 | 00:00:00 | |
| DB0UT-7 | 2026-09-01 14:50:18 | 47.15663 | 3.08266 | 85° | 78km/h | 13649m | 2.9m/s | 0°C | 0% | 0hPa | 0V | 00:00:00 | 00:00:00 | 00:00:00 | |
| DB0ND-19 | 2026-09-01 14:50:08 | 47.15636 | 3.07919 | 82° | 78km/h | 13600m | 3.1m/s | -54.2°C | -1.0% | -1.0hPa | 0V | 00:00:00 | 00:00:00 | 00:00:00 | |
| DB0UT-7 | 2026-09-01 14:49:48 | 47.15584 | 3.07391 | 85° | 84km/h | 13515m | 4.3m/s | 0°C | 0% | 0hPa | 0V | 00:00:00 | 00:00:00 | 00:00:00 | |
| DB0ND-19 | 2026-09-01 14:49:37 | 47.15547 | 3.07024 | 80° | 84km/h | 13469m | 4.1m/s | -54.2°C | -1.0% | -1.0hPa | 0V | 00:00:00 | 00:00:00 | 00:00:00 | |
| DB0UT-7 | 2026-09-01 14:49:18 | 47.15473 | 3.06473 | 79° | 82km/h | 13367m | 3.4m/s | 0°C | 0% | 0hPa | 0V | 00:00:00 | 00:00:00 | 00:00:00 | |
| DB0ND-19 | 2026-09-01 14:49:06 | 47.15419 | 3.06089 | 79° | 78km/h | 13333m | 3.5m/s | -54.4°C | -1.0% | -1.0hPa | 0V | 00:00:00 | 00:00:00 | 00:00:00 | |
| DB0UT-7 | 2026-09-01 14:48:48 | 47.15357 | 3.05568 | 79° | 86km/h | 13256m | 3.3m/s | 0°C | 0% | 0hPa | 0V | 00:00:00 | 00:00:00 | 00:00:00 | |
| DB0UT-7 | 2026-09-01 14:48:18 | 47.15255 | 3.04615 | 86° | 97km/h | 13123m | 4.4m/s | 0°C | 0% | 0hPa | 0V | 00:00:00 | 00:00:00 | 00:00:00 | |
| DB0ND-19 | 2026-09-01 14:48:04 | 47.15202 | 3.04084 | 79° | 95km/h | 13060m | 4.9m/s | -56.3°C | -1.0% | -1.0hPa | 0V | 00:00:00 | 00:00:00 | 00:00:00 | |
| DB0UT-7 | 2026-09-01 14:47:48 | 47.15122 | 3.03566 | 78° | 91km/h | 12988m | 3.7m/s | 0°C | 0% | 0hPa | 0V | 00:00:00 | 00:00:00 | 00:00:00 | |
| DB0UT-7 | 2026-09-01 14:47:18 | 47.14965 | 3.02574 | 78° | 93km/h | 12854m | 3.9m/s | 0°C | 0% | 0hPa | 0V | 00:00:00 | 00:00:00 | 00:00:00 | |
| DB0UT-7 | 2026-09-01 14:46:48 | 47.14830 | 3.01545 | 80° | 106km/h | 12717m | 4.0m/s | 0°C | 0% | 0hPa | 0V | 00:00:00 | 00:00:00 | 00:00:00 | |
| DB0UT-7 | 2026-09-01 14:46:18 | 47.14672 | 3.00381 | 76° | 106km/h | 12582m | 3.5m/s | 0°C | 0% | 0hPa | 0V | 00:00:00 | 00:00:00 | 00:00:00 | |
| DB0UT-7 | 2026-09-01 14:45:48 | 47.14434 | 2.99251 | 71° | 100km/h | 12453m | 3.5m/s | 0°C | 0% | 0hPa | 0V | 00:00:00 | 00:00:00 | 00:00:00 | |
| DB0UT-7 | 2026-09-01 14:45:18 | 47.14182 | 2.98186 | 70° | 99km/h | 12326m | 5.0m/s | 0°C | 0% | 0hPa | 0V | 00:00:00 | 00:00:00 | 00:00:00 | |
| DB0UT-7 | 2026-09-01 14:44:48 | 47.13935 | 2.97143 | 72° | 102km/h | 12197m | 3.8m/s | 0°C | 0% | 0hPa | 0V | 00:00:00 | 00:00:00 | 00:00:00 | |
| DB0UT-7 | 2026-09-01 14:44:18 | 47.13733 | 2.96052 | 77° | 108km/h | 12072m | 4.6m/s | 0°C | 0% | 0hPa | 0V | 00:00:00 | 00:00:00 | 00:00:00 | |
| DB0UT-7 | 2026-09-01 14:43:48 | 47.13553 | 2.94874 | 72° | 119km/h | 11938m | 3.5m/s | 0°C | 0% | 0hPa | 0V | 00:00:00 | 00:00:00 | 00:00:00 | |
| DB0UT-7 | 2026-09-01 14:43:18 | 47.13323 | 2.93607 | 78° | 124km/h | 11804m | 3.0m/s | 0°C | 0% | 0hPa | 0V | 00:00:00 | 00:00:00 | 00:00:00 | |
| DB0UT-7 | 2026-09-01 14:42:48 | 47.13076 | 2.92271 | 74° | 122km/h | 11666m | 4.5m/s | 0°C | 0% | 0hPa | 0V | 00:00:00 | 00:00:00 | 00:00:00 | |
| DB0UT-7 | 2026-09-01 14:42:18 | 47.12815 | 2.90967 | 73° | 120km/h | 11542m | 5.5m/s | 0°C | 0% | 0hPa | 0V | 00:00:00 | 00:00:00 | 00:00:00 | |
| DB0UT-7 | 2026-09-01 14:41:48 | 47.12535 | 2.89701 | 73° | 117km/h | 11410m | 4.9m/s | 0°C | 0% | 0hPa | 0V | 00:00:00 | 00:00:00 | 00:00:00 | |
| DB0UT-7 | 2026-09-01 14:41:18 | 47.12246 | 2.88472 | 71° | 117km/h | 11281m | 4.5m/s | 0°C | 0% | 0hPa | 0V | 00:00:00 | 00:00:00 | 00:00:00 | |
| DB0UT-7 | 2026-09-01 14:40:48 | 47.11967 | 2.87237 | 73° | 115km/h | 11154m | 5.1m/s | 0°C | 0% | 0hPa | 0V | 00:00:00 | 00:00:00 | 00:00:00 | |
| DB0UT-7 | 2026-09-01 14:40:18 | 47.11723 | 2.86008 | 75° | 113km/h | 11026m | 4.4m/s | 0°C | 0% | 0hPa | 0V | 00:00:00 | 00:00:00 | 00:00:00 | |
| DB0UT-7 | 2026-09-01 14:39:48 | 47.11494 | 2.84802 | 76° | 108km/h | 10898m | 2.7m/s | 0°C | 0% | 0hPa | 0V | 00:00:00 | 00:00:00 | 00:00:00 | |
| DB0UT-7 | 2026-09-01 14:39:18 | 47.11269 | 2.83640 | 76° | 108km/h | 10772m | 3.0m/s | 0°C | 0% | 0hPa | 0V | 00:00:00 | 00:00:00 | 00:00:00 | |
| DB0UT-7 | 2026-09-01 14:38:48 | 47.11051 | 2.82482 | 74° | 108km/h | 10645m | 4.2m/s | 0°C | 0% | 0hPa | 0V | 00:00:00 | 00:00:00 | 00:00:00 | |
| DB0UT-7 | 2026-09-01 14:38:18 | 47.10839 | 2.81325 | 77° | 104km/h | 10520m | 5.0m/s | 0°C | 0% | 0hPa | 0V | 00:00:00 | 00:00:00 | 00:00:00 | |
| DB0UT-7 | 2026-09-01 14:37:48 | 47.10638 | 2.80202 | 73° | 99km/h | 10392m | 5.1m/s | 0°C | 0% | 0hPa | 0V | 00:00:00 | 00:00:00 | 00:00:00 | |
| DB0UT-7 | 2026-09-01 14:37:18 | 47.10471 | 2.79129 | 79° | 95km/h | 10261m | 3.7m/s | 0°C | 0% | 0hPa | 0V | 00:00:00 | 00:00:00 | 00:00:00 | |
| DB0UT-7 | 2026-09-01 14:36:48 | 47.10317 | 2.78094 | 77° | 93km/h | 10126m | 3.9m/s | 0°C | 0% | 0hPa | 0V | 00:00:00 | 00:00:00 | 00:00:00 | |
| DB0UT-7 | 2026-09-01 14:36:18 | 47.10134 | 2.77092 | 73° | 89km/h | 9993m | 6.2m/s | 0°C | 0% | 0hPa | 0V | 00:00:00 | 00:00:00 | 00:00:00 | |
| DB0UT-7 | 2026-09-01 14:35:48 | 47.09956 | 2.76143 | 75° | 88km/h | 9863m | 4.4m/s | 0°C | 0% | 0hPa | 0V | 00:00:00 | 00:00:00 | 00:00:00 | |
| DB0UT-7 | 2026-09-01 14:35:18 | 47.09780 | 2.75193 | 76° | 89km/h | 9735m | 3.4m/s | 0°C | 0% | 0hPa | 0V | 00:00:00 | 00:00:00 | 00:00:00 | |
| DB0UT-7 | 2026-09-01 14:34:48 | 47.09602 | 2.74235 | 73° | 88km/h | 9606m | 4.4m/s | 0°C | 0% | 0hPa | 0V | 00:00:00 | 00:00:00 | 00:00:00 | |
| DB0UT-7 | 2026-09-01 14:34:18 | 47.09433 | 2.73295 | 79° | 84km/h | 9478m | 5.6m/s | 0°C | 0% | 0hPa | 0V | 00:00:00 | 00:00:00 | 00:00:00 | |
| DB0UT-7 | 2026-09-01 14:33:48 | 47.09269 | 2.72387 | 76° | 78km/h | 9342m | 4.5m/s | 0°C | 0% | 0hPa | 0V | 00:00:00 | 00:00:00 | 00:00:00 | |
| DB0UT-7 | 2026-09-01 14:33:18 | 47.09106 | 2.71551 | 74° | 73km/h | 9194m | 5.8m/s | 0°C | 0% | 0hPa | 0V | 00:00:00 | 00:00:00 | 00:00:00 | |
| DB0UT-7 | 2026-09-01 14:32:48 | 47.08958 | 2.70766 | 75° | 71km/h | 9057m | 5.3m/s | 0°C | 0% | 0hPa | 0V | 00:00:00 | 00:00:00 | 00:00:00 |